CheckWX is a tool to help pilots better visualize weather data.  It is not intended as a substitute for an official pre-flight weather briefing.

07:27:09 UTC

OEHL TAF
Hail Airport
Saudi Arabia
OEHL 162300Z 1700/1806 27006G16KT CAVOK

Jun-17@
00:00 UTC

Jun-17 @ 00:00 UTC

Jun-18@
06:00 UTC

Jun-18 @ 06:00 UTC

OEHL 162300Z 1700/1806 27006G16KT CAVOK
Wind
  • 270° at 6 KTS
  • {Gusting to 16 KTS
Conditions
No significant weather
Cloud Levels
  • No significant clouds